sensor_id;sensor_type;location;lat;lon;timestamp;P1;durP1;ratioP1;P2;durP2;ratioP2
52023;SDS011;38038;45.922;13.604;2023-03-19T00:53:01;20.87;;;18.83;;
52023;SDS011;38038;45.922;13.604;2023-03-19T00:55:34;20.03;;;18.40;;
52023;SDS011;38038;45.922;13.604;2023-03-19T00:58:07;20.80;;;19.00;;
52023;SDS011;38038;45.922;13.604;2023-03-19T01:00:34;19.13;;;17.67;;
52023;SDS011;38038;45.922;13.604;2023-03-19T01:03:01;19.93;;;18.33;;
52023;SDS011;38038;45.922;13.604;2023-03-19T01:05:27;17.53;;;16.23;;
52023;SDS011;38038;45.922;13.604;2023-03-19T01:07:54;18.90;;;17.30;;
52023;SDS011;38038;45.922;13.604;2023-03-19T01:10:20;18.50;;;16.97;;
52023;SDS011;38038;45.922;13.604;2023-03-19T01:12:48;18.53;;;17.03;;
52023;SDS011;38038;45.922;13.604;2023-03-19T01:15:14;17.57;;;16.27;;
52023;SDS011;38038;45.922;13.604;2023-03-19T01:17:40;16.90;;;15.53;;
52023;SDS011;38038;45.922;13.604;2023-03-19T01:20:06;17.80;;;16.33;;
52023;SDS011;38038;45.922;13.604;2023-03-19T01:22:37;17.03;;;15.70;;
52023;SDS011;38038;45.922;13.604;2023-03-19T01:25:04;17.23;;;15.57;;
52023;SDS011;38038;45.922;13.604;2023-03-19T01:27:31;17.90;;;16.50;;
52023;SDS011;38038;45.922;13.604;2023-03-19T01:29:57;17.67;;;15.97;;
52023;SDS011;38038;45.922;13.604;2023-03-19T01:32:22;18.70;;;17.30;;
52023;SDS011;38038;45.922;13.604;2023-03-19T01:34:48;18.20;;;16.67;;
52023;SDS011;38038;45.922;13.604;2023-03-19T01:37:14;17.97;;;16.37;;
52023;SDS011;38038;45.922;13.604;2023-03-19T01:39:40;17.07;;;15.63;;
52023;SDS011;38038;45.922;13.604;2023-03-19T01:42:05;18.73;;;17.13;;
52023;SDS011;38038;45.922;13.604;2023-03-19T01:44:33;18.20;;;16.57;;
52023;SDS011;38038;45.922;13.604;2023-03-19T01:47:01;18.53;;;17.00;;
52023;SDS011;38038;45.922;13.604;2023-03-19T01:49:34;17.88;;;16.58;;
52023;SDS011;38038;45.922;13.604;2023-03-19T01:52:02;16.90;;;15.53;;
52023;SDS011;38038;45.922;13.604;2023-03-19T01:54:30;17.37;;;15.67;;
52023;SDS011;38038;45.922;13.604;2023-03-19T01:56:59;17.17;;;15.77;;
52023;SDS011;38038;45.922;13.604;2023-03-19T01:59:32;16.87;;;15.47;;
52023;SDS011;38038;45.922;13.604;2023-03-19T02:02:01;17.20;;;15.80;;
52023;SDS011;38038;45.922;13.604;2023-03-19T02:04:40;18.17;;;16.73;;
52023;SDS011;38038;45.922;13.604;2023-03-19T02:07:08;17.23;;;15.73;;
52023;SDS011;38038;45.922;13.604;2023-03-19T02:09:35;17.77;;;16.27;;
52023;SDS011;38038;45.922;13.604;2023-03-19T02:12:01;17.53;;;16.13;;
52023;SDS011;38038;45.922;13.604;2023-03-19T02:14:28;16.80;;;15.43;;
52023;SDS011;38038;45.922;13.604;2023-03-19T02:16:54;17.57;;;15.50;;
52023;SDS011;38038;45.922;13.604;2023-03-19T02:19:31;17.97;;;16.27;;
52023;SDS011;38038;45.922;13.604;2023-03-19T02:22:01;15.07;;;13.67;;
52023;SDS011;38038;45.922;13.604;2023-03-19T02:24:32;18.33;;;15.60;;
52023;SDS011;38038;45.922;13.604;2023-03-19T02:27:02;16.90;;;15.50;;
52023;SDS011;38038;45.922;13.604;2023-03-19T02:29:32;17.27;;;15.87;;
52023;SDS011;38038;45.922;13.604;2023-03-19T02:31:57;18.03;;;16.57;;
52023;SDS011;38038;45.922;13.604;2023-03-19T02:36:59;18.57;;;16.03;;
52023;SDS011;38038;45.922;13.604;2023-03-19T02:40:16;18.73;;;17.27;;
52023;SDS011;38038;45.922;13.604;2023-03-19T02:42:19;19.47;;;17.47;;
52023;SDS011;38038;45.922;13.604;2023-03-19T02:44:48;19.50;;;17.80;;
52023;SDS011;38038;45.922;13.604;2023-03-19T02:47:14;19.60;;;17.47;;
52023;SDS011;38038;45.922;13.604;2023-03-19T02:49:41;17.80;;;16.33;;
52023;SDS011;38038;45.922;13.604;2023-03-19T02:52:06;20.43;;;18.80;;
52023;SDS011;38038;45.922;13.604;2023-03-19T02:54:32;19.07;;;17.67;;
52023;SDS011;38038;45.922;13.604;2023-03-19T02:56:58;20.33;;;18.63;;
52023;SDS011;38038;45.922;13.604;2023-03-19T02:59:24;19.00;;;17.50;;
52023;SDS011;38038;45.922;13.604;2023-03-19T03:01:50;18.73;;;17.10;;
52023;SDS011;38038;45.922;13.604;2023-03-19T03:04:16;18.30;;;16.93;;
52023;SDS011;38038;45.922;13.604;2023-03-19T03:06:42;16.87;;;15.57;;
52023;SDS011;38038;45.922;13.604;2023-03-19T03:09:09;18.77;;;17.37;;
52023;SDS011;38038;45.922;13.604;2023-03-19T03:11:36;18.30;;;16.90;;
52023;SDS011;38038;45.922;13.604;2023-03-19T03:14:01;17.53;;;16.20;;
52023;SDS011;38038;45.922;13.604;2023-03-19T03:16:27;17.03;;;15.53;;
52023;SDS011;38038;45.922;13.604;2023-03-19T03:18:53;17.63;;;16.33;;
52023;SDS011;38038;45.922;13.604;2023-03-19T03:21:19;16.90;;;15.53;;
52023;SDS011;38038;45.922;13.604;2023-03-19T03:23:45;17.60;;;16.20;;
52023;SDS011;38038;45.922;13.604;2023-03-19T03:26:12;16.23;;;15.13;;
52023;SDS011;38038;45.922;13.604;2023-03-19T03:28:38;16.50;;;15.20;;
52023;SDS011;38038;45.922;13.604;2023-03-19T03:31:04;18.47;;;16.77;;
52023;SDS011;38038;45.922;13.604;2023-03-19T03:33:30;17.93;;;16.57;;
52023;SDS011;38038;45.922;13.604;2023-03-19T03:35:57;17.67;;;16.10;;
52023;SDS011;38038;45.922;13.604;2023-03-19T03:38:22;18.63;;;16.83;;
52023;SDS011;38038;45.922;13.604;2023-03-19T03:40:49;17.30;;;16.00;;
52023;SDS011;38038;45.922;13.604;2023-03-19T03:43:16;16.30;;;15.10;;
52023;SDS011;38038;45.922;13.604;2023-03-19T03:45:43;14.77;;;13.77;;
52023;SDS011;38038;45.922;13.604;2023-03-19T03:48:09;16.10;;;14.90;;
52023;SDS011;38038;45.922;13.604;2023-03-19T03:50:35;16.33;;;15.23;;
52023;SDS011;38038;45.922;13.604;2023-03-19T03:53:01;17.07;;;15.67;;
52023;SDS011;38038;45.922;13.604;2023-03-19T03:55:26;15.87;;;14.53;;
52023;SDS011;38038;45.922;13.604;2023-03-19T03:57:52;17.97;;;16.60;;
52023;SDS011;38038;45.922;13.604;2023-03-19T04:00:18;16.60;;;15.50;;
52023;SDS011;38038;45.922;13.604;2023-03-19T04:02:44;16.67;;;15.33;;
52023;SDS011;38038;45.922;13.604;2023-03-19T04:05:10;15.90;;;14.60;;
52023;SDS011;38038;45.922;13.604;2023-03-19T04:07:36;16.83;;;15.20;;
52023;SDS011;38038;45.922;13.604;2023-03-19T04:10:03;16.57;;;15.07;;
52023;SDS011;38038;45.922;13.604;2023-03-19T04:12:29;16.90;;;15.50;;
52023;SDS011;38038;45.922;13.604;2023-03-19T04:14:55;15.70;;;14.43;;
52023;SDS011;38038;45.922;13.604;2023-03-19T04:17:21;16.37;;;15.07;;
52023;SDS011;38038;45.922;13.604;2023-03-19T04:19:47;16.37;;;14.97;;
52023;SDS011;38038;45.922;13.604;2023-03-19T04:22:13;17.17;;;15.70;;
52023;SDS011;38038;45.922;13.604;2023-03-19T04:24:39;17.70;;;16.40;;
52023;SDS011;38038;45.922;13.604;2023-03-19T04:27:06;16.93;;;15.13;;
52023;SDS011;38038;45.922;13.604;2023-03-19T04:29:32;17.00;;;15.73;;
52023;SDS011;38038;45.922;13.604;2023-03-19T04:31:58;17.93;;;16.63;;
52023;SDS011;38038;45.922;13.604;2023-03-19T04:34:23;17.10;;;15.90;;
52023;SDS011;38038;45.922;13.604;2023-03-19T04:36:49;17.47;;;15.97;;
52023;SDS011;38038;45.922;13.604;2023-03-19T04:39:16;16.47;;;15.27;;
52023;SDS011;38038;45.922;13.604;2023-03-19T04:41:42;17.47;;;16.17;;
52023;SDS011;38038;45.922;13.604;2023-03-19T04:44:09;16.20;;;14.90;;
52023;SDS011;38038;45.922;13.604;2023-03-19T04:46:35;18.07;;;16.77;;
52023;SDS011;38038;45.922;13.604;2023-03-19T04:49:00;18.63;;;17.13;;
52023;SDS011;38038;45.922;13.604;2023-03-19T04:51:26;18.03;;;16.77;;
52023;SDS011;38038;45.922;13.604;2023-03-19T04:53:52;20.13;;;18.57;;
52023;SDS011;38038;45.922;13.604;2023-03-19T04:56:19;18.50;;;17.23;;
52023;SDS011;38038;45.922;13.604;2023-03-19T04:58:44;20.20;;;18.73;;
52023;SDS011;38038;45.922;13.604;2023-03-19T05:01:10;18.60;;;17.20;;
52023;SDS011;38038;45.922;13.604;2023-03-19T05:03:36;18.20;;;16.80;;
52023;SDS011;38038;45.922;13.604;2023-03-19T05:06:02;17.57;;;16.27;;
52023;SDS011;38038;45.922;13.604;2023-03-19T05:08:28;17.90;;;16.30;;
52023;SDS011;38038;45.922;13.604;2023-03-19T05:10:53;17.60;;;16.07;;
52023;SDS011;38038;45.922;13.604;2023-03-19T05:13:19;16.30;;;14.80;;
52023;SDS011;38038;45.922;13.604;2023-03-19T05:15:45;18.60;;;17.13;;
52023;SDS011;38038;45.922;13.604;2023-03-19T05:18:12;16.77;;;15.57;;
52023;SDS011;38038;45.922;13.604;2023-03-19T05:20:38;18.80;;;17.30;;
52023;SDS011;38038;45.922;13.604;2023-03-19T05:23:04;17.27;;;16.07;;
52023;SDS011;38038;45.922;13.604;2023-03-19T05:25:30;17.97;;;16.37;;
52023;SDS011;38038;45.922;13.604;2023-03-19T05:27:59;17.03;;;15.83;;
52023;SDS011;38038;45.922;13.604;2023-03-19T05:30:25;18.40;;;16.90;;
52023;SDS011;38038;45.922;13.604;2023-03-19T05:32:51;16.50;;;15.30;;
52023;SDS011;38038;45.922;13.604;2023-03-19T05:35:17;17.70;;;16.17;;
52023;SDS011;38038;45.922;13.604;2023-03-19T05:37:43;18.30;;;17.00;;
52023;SDS011;38038;45.922;13.604;2023-03-19T05:40:10;18.60;;;17.00;;
52023;SDS011;38038;45.922;13.604;2023-03-19T05:42:36;19.30;;;17.73;;
52023;SDS011;38038;45.922;13.604;2023-03-19T05:45:02;17.93;;;16.40;;
52023;SDS011;38038;45.922;13.604;2023-03-19T05:47:29;16.57;;;15.37;;
52023;SDS011;38038;45.922;13.604;2023-03-19T05:49:55;18.07;;;16.57;;
52023;SDS011;38038;45.922;13.604;2023-03-19T05:52:21;15.63;;;14.43;;
52023;SDS011;38038;45.922;13.604;2023-03-19T05:54:47;17.17;;;15.90;;
52023;SDS011;38038;45.922;13.604;2023-03-19T05:57:13;17.57;;;15.93;;
52023;SDS011;38038;45.922;13.604;2023-03-19T05:59:40;17.63;;;16.43;;
52023;SDS011;38038;45.922;13.604;2023-03-19T06:02:06;26.17;;;24.37;;
52023;SDS011;38038;45.922;13.604;2023-03-19T06:04:32;16.73;;;15.53;;
52023;SDS011;38038;45.922;13.604;2023-03-19T06:06:58;15.67;;;14.27;;
52023;SDS011;38038;45.922;13.604;2023-03-19T06:09:24;17.30;;;16.00;;
52023;SDS011;38038;45.922;13.604;2023-03-19T06:11:50;16.73;;;15.43;;
52023;SDS011;38038;45.922;13.604;2023-03-19T06:14:16;16.03;;;14.63;;
52023;SDS011;38038;45.922;13.604;2023-03-19T06:16:42;17.23;;;16.10;;
52023;SDS011;38038;45.922;13.604;2023-03-19T06:19:08;17.03;;;15.73;;
52023;SDS011;38038;45.922;13.604;2023-03-19T06:21:33;16.33;;;15.13;;
52023;SDS011;38038;45.922;13.604;2023-03-19T06:24:00;16.10;;;14.90;;
52023;SDS011;38038;45.922;13.604;2023-03-19T06:26:25;16.37;;;15.03;;
52023;SDS011;38038;45.922;13.604;2023-03-19T06:28:51;16.87;;;15.37;;
52023;SDS011;38038;45.922;13.604;2023-03-19T06:31:17;17.07;;;15.43;;
52023;SDS011;38038;45.922;13.604;2023-03-19T06:33:43;16.87;;;15.57;;
52023;SDS011;38038;45.922;13.604;2023-03-19T06:36:09;17.70;;;16.30;;
52023;SDS011;38038;45.922;13.604;2023-03-19T06:38:35;15.20;;;14.10;;
52023;SDS011;38038;45.922;13.604;2023-03-19T06:41:02;15.33;;;14.10;;
52023;SDS011;38038;45.922;13.604;2023-03-19T06:43:28;15.60;;;14.30;;
52023;SDS011;38038;45.922;13.604;2023-03-19T06:45:53;17.63;;;16.27;;
52023;SDS011;38038;45.922;13.604;2023-03-19T06:48:19;15.30;;;14.17;;
52023;SDS011;38038;45.922;13.604;2023-03-19T06:50:45;14.87;;;13.97;;
52023;SDS011;38038;45.922;13.604;2023-03-19T06:53:12;14.33;;;13.33;;
52023;SDS011;38038;45.922;13.604;2023-03-19T06:55:38;14.80;;;13.73;;
52023;SDS011;38038;45.922;13.604;2023-03-19T06:58:04;15.57;;;14.27;;
52023;SDS011;38038;45.922;13.604;2023-03-19T07:00:30;14.90;;;13.80;;
52023;SDS011;38038;45.922;13.604;2023-03-19T07:02:57;14.50;;;13.57;;
52023;SDS011;38038;45.922;13.604;2023-03-19T07:05:22;14.73;;;13.67;;
52023;SDS011;38038;45.922;13.604;2023-03-19T07:07:48;12.87;;;11.97;;
52023;SDS011;38038;45.922;13.604;2023-03-19T07:10:16;13.47;;;12.53;;
52023;SDS011;38038;45.922;13.604;2023-03-19T07:12:43;14.00;;;12.90;;
52023;SDS011;38038;45.922;13.604;2023-03-19T07:15:09;14.67;;;13.67;;
52023;SDS011;38038;45.922;13.604;2023-03-19T07:17:35;15.70;;;14.37;;
52023;SDS011;38038;45.922;13.604;2023-03-19T07:20:01;15.77;;;14.57;;
52023;SDS011;38038;45.922;13.604;2023-03-19T07:22:26;14.30;;;13.20;;
52023;SDS011;38038;45.922;13.604;2023-03-19T07:24:52;15.17;;;13.87;;
52023;SDS011;38038;45.922;13.604;2023-03-19T07:27:18;15.00;;;13.90;;
52023;SDS011;38038;45.922;13.604;2023-03-19T07:29:43;16.33;;;14.93;;
52023;SDS011;38038;45.922;13.604;2023-03-19T07:32:09;15.10;;;13.87;;
52023;SDS011;38038;45.922;13.604;2023-03-19T07:34:35;13.83;;;12.80;;
52023;SDS011;38038;45.922;13.604;2023-03-19T07:37:01;14.33;;;13.23;;
52023;SDS011;38038;45.922;13.604;2023-03-19T07:39:27;13.80;;;12.70;;
52023;SDS011;38038;45.922;13.604;2023-03-19T07:41:52;13.80;;;12.77;;
52023;SDS011;38038;45.922;13.604;2023-03-19T07:44:18;13.83;;;12.73;;
52023;SDS011;38038;45.922;13.604;2023-03-19T07:46:44;12.80;;;11.90;;
52023;SDS011;38038;45.922;13.604;2023-03-19T07:49:09;14.43;;;13.17;;
52023;SDS011;38038;45.922;13.604;2023-03-19T07:51:35;15.30;;;14.10;;
52023;SDS011;38038;45.922;13.604;2023-03-19T07:54:01;14.87;;;13.87;;
52023;SDS011;38038;45.922;13.604;2023-03-19T07:56:26;14.17;;;13.17;;
52023;SDS011;38038;45.922;13.604;2023-03-19T07:58:52;16.20;;;15.00;;
52023;SDS011;38038;45.922;13.604;2023-03-19T08:01:18;14.47;;;13.27;;
52023;SDS011;38038;45.922;13.604;2023-03-19T08:03:44;15.13;;;13.93;;
52023;SDS011;38038;45.922;13.604;2023-03-19T08:06:10;13.23;;;12.33;;
52023;SDS011;38038;45.922;13.604;2023-03-19T08:08:35;14.30;;;13.23;;
52023;SDS011;38038;45.922;13.604;2023-03-19T08:11:02;13.07;;;12.17;;
52023;SDS011;38038;45.922;13.604;2023-03-19T08:13:28;12.63;;;11.67;;
52023;SDS011;38038;45.922;13.604;2023-03-19T08:15:54;12.43;;;11.53;;
52023;SDS011;38038;45.922;13.604;2023-03-19T08:18:20;13.93;;;12.93;;
52023;SDS011;38038;45.922;13.604;2023-03-19T08:20:46;14.10;;;12.77;;
52023;SDS011;38038;45.922;13.604;2023-03-19T08:23:12;13.60;;;12.53;;
52023;SDS011;38038;45.922;13.604;2023-03-19T08:25:38;13.70;;;12.80;;
52023;SDS011;38038;45.922;13.604;2023-03-19T08:28:04;13.37;;;12.50;;
52023;SDS011;38038;45.922;13.604;2023-03-19T08:30:31;15.20;;;14.07;;
52023;SDS011;38038;45.922;13.604;2023-03-19T08:32:57;13.67;;;12.63;;
52023;SDS011;38038;45.922;13.604;2023-03-19T08:35:23;14.43;;;13.43;;
52023;SDS011;38038;45.922;13.604;2023-03-19T08:37:51;13.70;;;12.67;;
52023;SDS011;38038;45.922;13.604;2023-03-19T08:40:17;13.97;;;12.87;;
52023;SDS011;38038;45.922;13.604;2023-03-19T08:42:43;14.30;;;13.23;;
52023;SDS011;38038;45.922;13.604;2023-03-19T08:45:09;14.03;;;12.87;;
52023;SDS011;38038;45.922;13.604;2023-03-19T08:47:36;24.17;;;22.70;;
52023;SDS011;38038;45.922;13.604;2023-03-19T08:50:02;13.47;;;12.50;;
52023;SDS011;38038;45.922;13.604;2023-03-19T08:52:28;13.40;;;12.47;;
52023;SDS011;38038;45.922;13.604;2023-03-19T08:54:54;13.70;;;12.43;;
52023;SDS011;38038;45.922;13.604;2023-03-19T08:57:20;13.73;;;12.83;;
52023;SDS011;38038;45.922;13.604;2023-03-19T08:59:46;14.20;;;13.20;;
52023;SDS011;38038;45.922;13.604;2023-03-19T09:02:11;12.63;;;11.73;;
52023;SDS011;38038;45.922;13.604;2023-03-19T09:04:41;13.20;;;12.20;;
52023;SDS011;38038;45.922;13.604;2023-03-19T09:07:07;13.13;;;12.23;;
52023;SDS011;38038;45.922;13.604;2023-03-19T09:09:37;12.57;;;11.77;;
52023;SDS011;38038;45.922;13.604;2023-03-19T09:12:03;12.17;;;11.37;;
52023;SDS011;38038;45.922;13.604;2023-03-19T09:14:30;13.77;;;12.77;;
52023;SDS011;38038;45.922;13.604;2023-03-19T09:16:55;13.47;;;12.10;;
52023;SDS011;38038;45.922;13.604;2023-03-19T09:19:21;14.03;;;12.73;;
52023;SDS011;38038;45.922;13.604;2023-03-19T09:21:47;12.37;;;11.47;;
52023;SDS011;38038;45.922;13.604;2023-03-19T09:24:14;12.00;;;11.30;;
52023;SDS011;38038;45.922;13.604;2023-03-19T09:26:40;12.17;;;11.40;;
52023;SDS011;38038;45.922;13.604;2023-03-19T09:29:05;12.23;;;11.33;;
52023;SDS011;38038;45.922;13.604;2023-03-19T09:31:32;12.40;;;11.50;;
52023;SDS011;38038;45.922;13.604;2023-03-19T09:33:57;12.37;;;11.33;;
52023;SDS011;38038;45.922;13.604;2023-03-19T09:36:23;12.40;;;11.40;;
52023;SDS011;38038;45.922;13.604;2023-03-19T09:38:49;12.67;;;11.80;;
52023;SDS011;38038;45.922;13.604;2023-03-19T09:49:15;11.07;;;10.27;;
52023;SDS011;38038;45.922;13.604;2023-03-19T09:51:53;11.37;;;10.57;;
52023;SDS011;38038;45.922;13.604;2023-03-19T09:54:32;11.10;;;10.40;;
52023;SDS011;38038;45.922;13.604;2023-03-19T09:57:03;11.10;;;10.40;;
52023;SDS011;38038;45.922;13.604;2023-03-19T09:59:29;10.30;;;9.60;;
52023;SDS011;38038;45.922;13.604;2023-03-19T10:10:17;11.23;;;10.33;;
52023;SDS011;38038;45.922;13.604;2023-03-19T10:15:33;10.50;;;9.80;;
52023;SDS011;38038;45.922;13.604;2023-03-19T10:20:51;9.77;;;9.07;;
52023;SDS011;38038;45.922;13.604;2023-03-19T10:23:54;9.77;;;9.07;;
52023;SDS011;38038;45.922;13.604;2023-03-19T10:26:18;9.60;;;9.00;;
52023;SDS011;38038;45.922;13.604;2023-03-19T10:34:41;10.10;;;9.50;;
52023;SDS011;38038;45.922;13.604;2023-03-19T10:39:36;10.60;;;9.90;;
52023;SDS011;38038;45.922;13.604;2023-03-19T10:42:10;10.45;;;9.73;;
52023;SDS011;38038;45.922;13.604;2023-03-19T10:44:59;11.30;;;10.27;;
52023;SDS011;38038;45.922;13.604;2023-03-19T10:47:44;11.53;;;10.63;;
52023;SDS011;38038;45.922;13.604;2023-03-19T10:50:15;10.70;;;10.00;;
52023;SDS011;38038;45.922;13.604;2023-03-19T10:52:51;10.60;;;10.00;;
52023;SDS011;38038;45.922;13.604;2023-03-19T10:55:28;11.73;;;10.90;;
52023;SDS011;38038;45.922;13.604;2023-03-19T10:58:03;10.93;;;10.23;;
52023;SDS011;38038;45.922;13.604;2023-03-19T11:00:31;10.90;;;10.20;;
52023;SDS011;38038;45.922;13.604;2023-03-19T11:02:59;13.23;;;12.38;;
52023;SDS011;38038;45.922;13.604;2023-03-19T11:05:29;11.40;;;10.70;;
52023;SDS011;38038;45.922;13.604;2023-03-19T11:07:58;10.77;;;10.07;;
52023;SDS011;38038;45.922;13.604;2023-03-19T11:10:25;10.52;;;9.77;;
52023;SDS011;38038;45.922;13.604;2023-03-19T11:12:54;11.95;;;11.05;;
52023;SDS011;38038;45.922;13.604;2023-03-19T11:15:28;9.77;;;9.18;;
52023;SDS011;38038;45.922;13.604;2023-03-19T11:18:04;12.98;;;12.02;;
52023;SDS011;38038;45.922;13.604;2023-03-19T11:21:01;9.57;;;8.98;;
52023;SDS011;38038;45.922;13.604;2023-03-19T11:23:39;9.90;;;9.20;;
52023;SDS011;38038;45.922;13.604;2023-03-19T11:26:06;9.88;;;9.27;;
52023;SDS011;38038;45.922;13.604;2023-03-19T11:28:32;9.30;;;8.70;;
52023;SDS011;38038;45.922;13.604;2023-03-19T11:31:12;9.07;;;8.57;;
52023;SDS011;38038;45.922;13.604;2023-03-19T11:33:49;10.43;;;9.65;;
52023;SDS011;38038;45.922;13.604;2023-03-19T11:38:59;8.77;;;8.27;;
52023;SDS011;38038;45.922;13.604;2023-03-19T11:49:32;8.43;;;7.93;;
52023;SDS011;38038;45.922;13.604;2023-03-19T11:52:14;8.55;;;8.05;;
52023;SDS011;38038;45.922;13.604;2023-03-19T11:55:15;8.65;;;8.15;;
52023;SDS011;38038;45.922;13.604;2023-03-19T12:03:20;8.70;;;8.10;;
52023;SDS011;38038;45.922;13.604;2023-03-19T12:08:50;9.00;;;8.50;;
52023;SDS011;38038;45.922;13.604;2023-03-19T12:16:56;8.77;;;8.27;;
52023;SDS011;38038;45.922;13.604;2023-03-19T12:25:20;9.77;;;9.18;;
52023;SDS011;38038;45.922;13.604;2023-03-19T12:36:10;9.60;;;9.00;;
52023;SDS011;38038;45.922;13.604;2023-03-19T12:41:11;9.82;;;8.90;;
52023;SDS011;38038;45.922;13.604;2023-03-19T12:43:54;9.45;;;8.85;;
52023;SDS011;38038;45.922;13.604;2023-03-19T12:49:20;8.70;;;8.18;;
52023;SDS011;38038;45.922;13.604;2023-03-19T12:57:46;9.60;;;8.90;;
52023;SDS011;38038;45.922;13.604;2023-03-19T13:00:21;9.90;;;9.07;;
52023;SDS011;38038;45.922;13.604;2023-03-19T13:05:35;9.52;;;8.93;;
52023;SDS011;38038;45.922;13.604;2023-03-19T13:08:09;8.82;;;8.23;;
52023;SDS011;38038;45.922;13.604;2023-03-19T13:11:00;10.55;;;9.82;;
52023;SDS011;38038;45.922;13.604;2023-03-19T13:21:43;9.90;;;9.25;;
52023;SDS011;38038;45.922;13.604;2023-03-19T13:24:35;9.82;;;9.18;;
52023;SDS011;38038;45.922;13.604;2023-03-19T13:27:05;9.55;;;8.85;;
52023;SDS011;38038;45.922;13.604;2023-03-19T13:29:35;8.90;;;8.40;;
52023;SDS011;38038;45.922;13.604;2023-03-19T13:32:06;9.60;;;8.75;;
52023;SDS011;38038;45.922;13.604;2023-03-19T13:34:46;9.45;;;8.70;;
52023;SDS011;38038;45.922;13.604;2023-03-19T13:37:16;9.40;;;8.90;;
52023;SDS011;38038;45.922;13.604;2023-03-19T13:39:44;9.55;;;9.02;;
52023;SDS011;38038;45.922;13.604;2023-03-19T13:45:03;8.77;;;8.18;;
52023;SDS011;38038;45.922;13.604;2023-03-19T13:47:50;9.10;;;8.50;;
52023;SDS011;38038;45.922;13.604;2023-03-19T13:55:30;10.15;;;9.45;;
52023;SDS011;38038;45.922;13.604;2023-03-19T14:03:19;9.63;;;8.82;;
52023;SDS011;38038;45.922;13.604;2023-03-19T14:05:50;9.30;;;8.70;;
52023;SDS011;38038;45.922;13.604;2023-03-19T14:08:27;8.75;;;8.15;;
52023;SDS011;38038;45.922;13.604;2023-03-19T14:11:06;8.80;;;8.30;;
52023;SDS011;38038;45.922;13.604;2023-03-19T14:13:42;9.48;;;8.90;;
52023;SDS011;38038;45.922;13.604;2023-03-19T14:16:17;9.18;;;8.68;;
52023;SDS011;38038;45.922;13.604;2023-03-19T14:18:46;9.40;;;8.90;;
52023;SDS011;38038;45.922;13.604;2023-03-19T14:21:29;8.80;;;8.20;;
52023;SDS011;38038;45.922;13.604;2023-03-19T14:26:52;8.88;;;8.38;;
52023;SDS011;38038;45.922;13.604;2023-03-19T14:29:18;9.20;;;8.63;;
52023;SDS011;38038;45.922;13.604;2023-03-19T14:31:50;9.05;;;8.45;;
52023;SDS011;38038;45.922;13.604;2023-03-19T14:37:23;9.10;;;8.60;;
52023;SDS011;38038;45.922;13.604;2023-03-19T14:40:02;9.27;;;8.77;;
52023;SDS011;38038;45.922;13.604;2023-03-19T14:42:40;9.57;;;9.05;;
52023;SDS011;38038;45.922;13.604;2023-03-19T14:53:50;9.48;;;8.88;;
52023;SDS011;38038;45.922;13.604;2023-03-19T14:56:25;9.70;;;8.90;;
52023;SDS011;38038;45.922;13.604;2023-03-19T14:58:57;9.27;;;8.75;;
52023;SDS011;38038;45.922;13.604;2023-03-19T15:01:28;9.25;;;8.55;;
52023;SDS011;38038;45.922;13.604;2023-03-19T15:03:58;9.02;;;8.50;;
52023;SDS011;38038;45.922;13.604;2023-03-19T15:06:37;9.25;;;8.65;;
52023;SDS011;38038;45.922;13.604;2023-03-19T15:09:05;9.00;;;8.40;;
52023;SDS011;38038;45.922;13.604;2023-03-19T15:17:29;9.80;;;9.00;;
52023;SDS011;38038;45.922;13.604;2023-03-19T15:19:59;8.82;;;8.23;;
52023;SDS011;38038;45.922;13.604;2023-03-19T15:22:33;8.73;;;8.23;;
52023;SDS011;38038;45.922;13.604;2023-03-19T15:25:08;9.98;;;9.27;;
52023;SDS011;38038;45.922;13.604;2023-03-19T15:27:38;9.45;;;8.85;;
52023;SDS011;38038;45.922;13.604;2023-03-19T15:30:24;8.98;;;8.48;;
52023;SDS011;38038;45.922;13.604;2023-03-19T15:32:53;9.27;;;8.77;;
52023;SDS011;38038;45.922;13.604;2023-03-19T15:35:21;9.55;;;8.98;;
52023;SDS011;38038;45.922;13.604;2023-03-19T15:37:50;9.82;;;9.27;;
52023;SDS011;38038;45.922;13.604;2023-03-19T15:40:20;9.95;;;9.35;;
52023;SDS011;38038;45.922;13.604;2023-03-19T15:42:49;9.57;;;8.98;;
52023;SDS011;38038;45.922;13.604;2023-03-19T15:45:17;9.02;;;8.52;;
52023;SDS011;38038;45.922;13.604;2023-03-19T15:47:47;9.50;;;8.85;;
52023;SDS011;38038;45.922;13.604;2023-03-19T15:50:27;10.70;;;10.10;;
52023;SDS011;38038;45.922;13.604;2023-03-19T15:52:59;11.13;;;10.52;;
52023;SDS011;38038;45.922;13.604;2023-03-19T15:55:28;10.65;;;10.05;;
52023;SDS011;38038;45.922;13.604;2023-03-19T15:57:54;10.15;;;9.55;;
52023;SDS011;38038;45.922;13.604;2023-03-19T16:00:26;10.13;;;9.50;;
52023;SDS011;38038;45.922;13.604;2023-03-19T16:02:52;10.25;;;9.65;;
52023;SDS011;38038;45.922;13.604;2023-03-19T16:05:24;9.45;;;8.85;;
52023;SDS011;38038;45.922;13.604;2023-03-19T16:08:44;9.80;;;9.20;;
52023;SDS011;38038;45.922;13.604;2023-03-19T16:10:47;9.30;;;8.70;;
52023;SDS011;38038;45.922;13.604;2023-03-19T16:16:05;10.02;;;9.38;;
52023;SDS011;38038;45.922;13.604;2023-03-19T16:18:44;9.27;;;8.68;;
52023;SDS011;38038;45.922;13.604;2023-03-19T16:21:21;9.20;;;8.60;;
52023;SDS011;38038;45.922;13.604;2023-03-19T16:23:51;9.73;;;9.23;;
52023;SDS011;38038;45.922;13.604;2023-03-19T16:26:41;10.30;;;9.68;;
52023;SDS011;38038;45.922;13.604;2023-03-19T16:31:47;10.80;;;10.20;;
52023;SDS011;38038;45.922;13.604;2023-03-19T16:36:47;9.73;;;9.13;;
52023;SDS011;38038;45.922;13.604;2023-03-19T16:39:23;10.90;;;10.38;;
52023;SDS011;38038;45.922;13.604;2023-03-19T16:44:41;12.00;;;11.20;;
52023;SDS011;38038;45.922;13.604;2023-03-19T16:47:11;29.17;;;27.47;;
52023;SDS011;38038;45.922;13.604;2023-03-19T16:49:47;18.17;;;16.70;;
52023;SDS011;38038;45.922;13.604;2023-03-19T16:52:13;20.90;;;19.05;;
52023;SDS011;38038;45.922;13.604;2023-03-19T16:54:44;19.92;;;18.02;;
52023;SDS011;38038;45.922;13.604;2023-03-19T16:57:10;19.25;;;17.95;;
52023;SDS011;38038;45.922;13.604;2023-03-19T16:59:38;19.63;;;18.13;;
52023;SDS011;38038;45.922;13.604;2023-03-19T17:02:11;19.40;;;17.80;;
52023;SDS011;38038;45.922;13.604;2023-03-19T17:04:38;18.67;;;17.20;;
52023;SDS011;38038;45.922;13.604;2023-03-19T17:07:05;18.47;;;16.90;;
52023;SDS011;38038;45.922;13.604;2023-03-19T17:09:30;18.70;;;17.20;;
52023;SDS011;38038;45.922;13.604;2023-03-19T17:11:56;17.93;;;16.53;;
52023;SDS011;38038;45.922;13.604;2023-03-19T17:14:22;18.17;;;16.83;;
52023;SDS011;38038;45.922;13.604;2023-03-19T17:16:48;18.67;;;17.27;;
52023;SDS011;38038;45.922;13.604;2023-03-19T17:19:22;18.60;;;17.20;;
52023;SDS011;38038;45.922;13.604;2023-03-19T17:21:50;21.45;;;19.88;;
52023;SDS011;38038;45.922;13.604;2023-03-19T17:26:47;18.23;;;16.93;;
52023;SDS011;38038;45.922;13.604;2023-03-19T17:29:13;18.40;;;17.07;;
52023;SDS011;38038;45.922;13.604;2023-03-19T17:31:39;28.33;;;26.37;;
52023;SDS011;38038;45.922;13.604;2023-03-19T17:34:08;16.83;;;15.73;;
52023;SDS011;38038;45.922;13.604;2023-03-19T17:36:40;18.73;;;16.77;;
52023;SDS011;38038;45.922;13.604;2023-03-19T17:39:09;17.83;;;16.53;;